Time;durP1;ratioP1;P1;durP2;ratioP2;P2;SDS_P1;SDS_P2;PMS_P1;PMS_P2;Temp;Humidity;BMP_temperature;BMP_pressure;BME280_temperature;BME280_humidity;BME280_pressure;Samples;Min_cycle;Max_cycle;Signal;HPM_P1;HPM_P2
2024/04/03 00:01:54;;;;;;;0.20;0.20;;;;;;;9.14;100.00;100582.56;5072563;28;20052;-46
2024/04/03 00:04:20;;;;;;;0.20;0.20;;;;;;;9.12;100.00;100574.81;5072944;28;20024;-46
2024/04/03 00:06:45;;;;;;;0.30;0.30;;;;;;;9.10;100.00;100581.59;5073217;28;20524;-46
2024/04/03 00:09:10;;;;;;;0.22;0.22;;;;;;;9.08;100.00;100580.69;5072106;28;20025;-47
2024/04/03 00:11:35;;;;;;;0.20;0.20;;;;;;;9.08;100.00;100572.97;5072660;28;20032;-47
2024/04/03 00:14:01;;;;;;;0.20;0.20;;;;;;;9.06;100.00;100569.47;5072704;28;20044;-48
2024/04/03 00:16:26;;;;;;;0.30;0.30;;;;;;;9.05;100.00;100572.88;5071659;28;20012;-46
2024/04/03 00:18:52;;;;;;;0.20;0.20;;;;;;;9.03;100.00;100564.25;5072891;28;20024;-46
2024/04/03 00:21:17;;;;;;;0.20;0.20;;;;;;;9.03;100.00;100569.38;5072890;28;20025;-46
2024/04/03 00:23:42;;;;;;;0.30;0.30;;;;;;;9.02;100.00;100563.34;5071798;28;20031;-47
2024/04/03 00:26:07;;;;;;;0.30;0.30;;;;;;;9.02;100.00;100562.50;5072488;28;20016;-47
2024/04/03 00:28:33;;;;;;;0.30;0.30;;;;;;;9.02;100.00;100557.34;5071828;28;20032;-47
2024/04/03 00:31:02;;;;;;;0.22;0.22;;;;;;;8.99;100.00;100563.28;5071995;28;20035;-47
2024/04/03 00:33:28;;;;;;;0.30;0.30;;;;;;;8.99;100.00;100564.97;5071702;28;20032;-46
2024/04/03 00:35:57;;;;;;;0.20;0.20;;;;;;;8.99;100.00;100559.84;5071491;28;20580;-46
2024/04/03 00:38:23;;;;;;;0.30;0.30;;;;;;;8.97;100.00;100556.34;5071893;28;20020;-46
2024/04/03 00:40:59;;;;;;;0.20;0.20;;;;;;;8.95;100.00;100557.97;5072547;28;20051;-47
2024/04/03 00:43:26;;;;;;;0.30;0.30;;;;;;;8.96;100.00;100546.88;5071373;28;20074;-46
2024/04/03 00:45:53;;;;;;;0.20;0.20;;;;;;;8.95;100.00;100542.56;5072574;28;20029;-47
2024/04/03 00:48:18;;;;;;;0.20;0.20;;;;;;;8.96;100.00;100541.72;5072198;28;20025;-46
2024/04/03 00:50:45;;;;;;;0.20;0.20;;;;;;;8.93;100.00;100537.38;5071168;28;20102;-47
2024/04/03 00:53:11;;;;;;;0.20;0.20;;;;;;;8.96;100.00;100536.59;5072252;28;20028;-47
2024/04/03 00:55:37;;;;;;;0.20;0.20;;;;;;;8.94;100.00;100543.41;5071841;28;20035;-47
2024/04/03 00:58:03;;;;;;;0.20;0.20;;;;;;;8.96;100.00;100536.59;5071467;28;20021;-47
2024/04/03 01:00:28;;;;;;;0.28;0.28;;;;;;;8.96;100.00;100526.31;5072150;28;20040;-47
2024/04/03 01:02:53;;;;;;;0.30;0.30;;;;;;;8.97;100.00;100517.78;5072280;28;20052;-46
2024/04/03 01:05:18;;;;;;;0.30;0.30;;;;;;;8.96;100.00;100523.75;5071603;28;20036;-47
2024/04/03 01:07:44;;;;;;;0.10;0.10;;;;;;;8.96;100.00;100516.03;5071920;28;20476;-46
2024/04/03 01:10:09;;;;;;;0.30;0.30;;;;;;;8.95;100.00;100516.84;5072066;28;20033;-46
2024/04/03 01:12:34;;;;;;;0.30;0.30;;;;;;;8.94;100.00;100507.41;5071154;28;20020;-47
2024/04/03 01:15:00;;;;;;;0.30;0.30;;;;;;;8.94;100.00;100515.13;5071980;28;20025;-47
2024/04/03 01:17:25;;;;;;;0.30;0.30;;;;;;;8.92;100.00;100514.19;5071806;28;20050;-47
2024/04/03 01:19:50;;;;;;;0.30;0.30;;;;;;;8.90;100.00;100512.44;5071350;28;20032;-48
2024/04/03 01:22:16;;;;;;;0.20;0.20;;;;;;;8.93;100.00;100511.66;5071992;28;20107;-50
2024/04/03 01:24:41;;;;;;;0.30;0.30;;;;;;;8.93;100.00;100511.66;5071802;28;20029;-47
2024/04/03 01:27:06;;;;;;;0.22;0.22;;;;;;;8.94;100.00;100499.72;5070783;28;20407;-47
2024/04/03 01:29:33;;;;;;;0.30;0.30;;;;;;;8.93;100.00;100500.53;5072005;28;20028;-49
2024/04/03 01:31:59;;;;;;;0.22;0.22;;;;;;;8.93;100.00;100495.38;5071125;28;20051;-50
2024/04/03 01:34:24;;;;;;;0.30;0.30;;;;;;;8.93;100.00;100490.25;5071692;28;20372;-50
2024/04/03 01:36:49;;;;;;;0.20;0.20;;;;;;;8.91;100.00;100487.63;5072101;28;20029;-47
2024/04/03 01:39:15;;;;;;;0.30;0.30;;;;;;;8.90;100.00;100483.31;5071057;28;20119;-49
2024/04/03 01:41:41;;;;;;;0.20;0.20;;;;;;;8.88;100.00;100479.81;5071373;28;20395;-49
2024/04/03 01:44:06;;;;;;;0.20;0.20;;;;;;;8.88;100.00;100478.13;5072010;28;20476;-50
2024/04/03 01:46:32;;;;;;;0.30;0.30;;;;;;;8.88;100.00;100480.69;5070954;28;20040;-47
2024/04/03 01:48:57;;;;;;;0.22;0.22;;;;;;;8.87;100.00;100476.38;5072792;28;20095;-50
2024/04/03 01:51:22;;;;;;;0.20;0.20;;;;;;;8.86;100.00;100466.94;5075186;28;20834;-47
2024/04/03 01:53:48;;;;;;;0.30;0.30;;;;;;;8.84;100.00;100467.69;5074858;28;20020;-48
2024/04/03 01:56:13;;;;;;;0.30;0.30;;;;;;;8.85;100.00;100467.75;5075318;28;20025;-50
2024/04/03 01:58:38;;;;;;;0.30;0.30;;;;;;;8.84;100.00;100460.84;5075370;28;20531;-50
2024/04/03 02:01:03;;;;;;;0.30;0.30;;;;;;;8.85;100.00;100462.59;5074527;28;20024;-47
2024/04/03 02:03:29;;;;;;;0.20;0.20;;;;;;;8.84;100.00;100450.56;5075119;28;20024;-47
2024/04/03 02:05:54;;;;;;;0.30;0.30;;;;;;;8.85;100.00;100442.03;5075311;28;20442;-50
2024/04/03 02:08:19;;;;;;;0.30;0.30;;;;;;;8.83;100.00;100446.28;5074185;28;20031;-46
2024/04/03 02:10:45;;;;;;;0.20;0.20;;;;;;;8.83;100.00;100440.25;5074930;28;20082;-48
2024/04/03 02:13:10;;;;;;;0.30;0.30;;;;;;;8.83;100.00;100440.25;5075269;28;20040;-47
2024/04/03 02:15:35;;;;;;;0.30;0.30;;;;;;;8.81;100.00;100437.66;5074253;28;20457;-48
2024/04/03 02:18:01;;;;;;;0.20;0.20;;;;;;;8.81;100.00;100442.78;5075003;28;20056;-50
2024/04/03 02:20:26;;;;;;;0.30;0.30;;;;;;;8.80;100.00;100427.31;5074725;28;20021;-47
2024/04/03 02:22:52;;;;;;;0.20;0.20;;;;;;;8.78;100.00;100419.56;5074260;28;20384;-48
2024/04/03 02:25:18;;;;;;;0.30;0.30;;;;;;;8.77;100.00;100412.69;5074766;28;20051;-48
2024/04/03 02:27:44;;;;;;;0.30;0.30;;;;;;;8.76;100.00;100400.66;5074778;28;20031;-48
2024/04/03 02:30:09;;;;;;;0.30;0.30;;;;;;;8.76;100.00;100399.81;5074085;28;20021;-48
2024/04/03 02:32:35;;;;;;;0.20;0.20;;;;;;;8.75;100.00;100398.91;5074669;28;20502;-46
2024/04/03 02:35:00;;;;;;;0.30;0.30;;;;;;;8.76;100.00;100398.09;5074683;28;20017;-51
2024/04/03 02:37:25;;;;;;;0.20;0.20;;;;;;;8.75;100.00;100388.63;5073675;28;20044;-46
2024/04/03 02:39:50;;;;;;;0.20;0.20;;;;;;;8.73;100.00;100385.16;5074635;28;20052;-48
2024/04/03 02:42:16;;;;;;;0.30;0.30;;;;;;;8.73;100.00;100382.59;5073842;28;20028;-50
2024/04/03 02:44:41;;;;;;;0.30;0.30;;;;;;;8.71;100.00;100377.41;5074363;28;20028;-47
2024/04/03 02:47:07;;;;;;;0.30;0.30;;;;;;;8.70;100.00;100383.38;5074285;28;20115;-46
2024/04/03 02:49:32;;;;;;;0.30;0.30;;;;;;;8.71;100.00;100385.13;5073130;28;20048;-48
2024/04/03 02:51:57;;;;;;;0.20;0.20;;;;;;;8.70;100.00;100380.81;5074353;28;20029;-50
2024/04/03 02:54:23;;;;;;;0.30;0.30;;;;;;;8.71;100.00;100376.53;5073991;28;20111;-47
2024/04/03 02:56:48;;;;;;;0.20;0.20;;;;;;;8.72;100.00;100380.84;5073715;28;20032;-47
2024/04/03 02:59:14;;;;;;;0.20;0.20;;;;;;;8.72;100.00;100378.28;5073915;28;20383;-50
2024/04/03 03:01:39;;;;;;;0.20;0.20;;;;;;;8.72;100.00;100373.16;5073863;28;20111;-48
2024/04/03 03:04:05;;;;;;;0.20;0.20;;;;;;;8.72;100.00;100368.88;5073436;28;20032;-50
2024/04/03 03:06:31;;;;;;;0.30;0.30;;;;;;;8.72;100.00;100368.88;5073860;28;20464;-47
2024/04/03 03:08:56;;;;;;;0.20;0.20;;;;;;;8.73;100.00;100364.63;5074008;28;20031;-49
2024/04/03 03:11:21;;;;;;;0.30;0.30;;;;;;;8.73;100.00;100365.47;5072770;28;20032;-46
2024/04/03 03:13:47;;;;;;;0.30;0.30;;;;;;;8.75;100.00;100367.22;5074168;28;20021;-50
2024/04/03 03:16:20;;;;;;;0.20;0.20;;;;;;;8.74;100.00;100361.22;5073758;28;20074;-47
2024/04/03 03:18:45;;;;;;;0.20;0.20;;;;;;;8.72;100.00;100361.16;5073203;28;20027;-50
2024/04/03 03:21:11;;;;;;;0.20;0.20;;;;;;;8.73;100.00;100354.34;5073678;28;20045;-49
2024/04/03 03:23:36;;;;;;;0.20;0.20;;;;;;;8.70;100.00;100347.41;5073518;28;20024;-50
2024/04/03 03:26:01;;;;;;;0.30;0.30;;;;;;;8.71;100.00;100350.84;5073147;28;20032;-47
2024/04/03 03:28:26;;;;;;;0.20;0.20;;;;;;;8.68;100.00;100350.75;5073449;28;20016;-47
2024/04/03 03:30:52;;;;;;;0.22;0.22;;;;;;;8.65;100.00;100341.28;5073730;28;20064;-47
2024/04/03 03:33:18;;;;;;;0.30;0.30;;;;;;;8.66;100.00;100342.13;5073018;28;20077;-48
2024/04/03 03:35:53;;;;;;;0.25;0.25;;;;;;;8.69;100.00;100342.25;5073427;28;20064;-49
2024/04/03 03:38:19;;;;;;;0.20;0.20;;;;;;;8.63;100.00;100330.06;5073445;28;20016;-49
2024/04/03 03:40:45;;;;;;;0.30;0.30;;;;;;;8.63;100.00;100337.78;5072843;28;20537;-49
2024/04/03 03:43:10;;;;;;;0.17;0.17;;;;;;;8.63;100.00;100327.50;5073460;28;20035;-49
2024/04/03 03:45:46;;;;;;;0.20;0.20;;;;;;;8.64;100.00;100333.53;5072312;28;20447;-48
2024/04/03 03:48:13;;;;;;;0.30;0.30;;;;;;;8.62;100.00;100330.03;5073138;28;20020;-47
2024/04/03 03:53:22;;;;;;;0.30;0.30;;;;;;;8.62;100.00;100319.75;5072407;28;20070;-46
2024/04/03 03:55:48;;;;;;;0.25;0.25;;;;;;;8.60;100.00;100317.16;5073532;28;20445;-49
2024/04/03 03:58:13;;;;;;;0.30;0.30;;;;;;;8.60;100.00;100316.25;5072898;28;20047;-48
2024/04/03 04:00:38;;;;;;;0.30;0.30;;;;;;;8.58;100.00;100311.06;5072200;28;20024;-51
2024/04/03 04:03:04;;;;;;;0.30;0.30;;;;;;;8.57;100.00;100302.50;5072774;28;20040;-49
2024/04/03 04:05:29;;;;;;;0.30;0.30;;;;;;;8.55;100.00;100306.72;5072651;28;20028;-47
2024/04/03 04:07:54;;;;;;;0.30;0.30;;;;;;;8.55;100.00;100306.72;5072249;28;20427;-47
2024/04/03 04:10:20;;;;;;;0.20;0.20;;;;;;;8.53;100.00;100300.69;5072780;28;20025;-48
2024/04/03 04:12:45;;;;;;;0.30;0.30;;;;;;;8.53;100.00;100299.81;5072338;28;20415;-47
2024/04/03 04:15:10;;;;;;;0.30;0.30;;;;;;;8.53;100.00;100294.66;5072004;28;20028;-47
2024/04/03 04:17:35;;;;;;;0.20;0.20;;;;;;;8.54;100.00;100291.28;5072482;28;20467;-49
2024/04/03 04:20:04;;;;;;;0.28;0.28;;;;;;;8.53;100.00;100295.56;5072441;28;20036;-46
2024/04/03 04:22:30;;;;;;;0.30;0.30;;;;;;;8.53;100.00;100294.66;5071892;28;20017;-48
2024/04/03 04:24:55;;;;;;;0.20;0.20;;;;;;;8.53;100.00;100290.41;5072723;28;20108;-48
2024/04/03 04:27:21;;;;;;;0.30;0.30;;;;;;;8.52;100.00;100278.41;5072280;28;20357;-47
2024/04/03 04:29:46;;;;;;;0.20;0.20;;;;;;;8.52;100.00;100287.78;5071934;28;20020;-46
2024/04/03 04:32:12;;;;;;;0.30;0.30;;;;;;;8.49;100.00;100280.00;5052414;28;20069;-47
2024/04/03 04:34:40;;;;;;;0.30;0.30;;;;;;;8.48;100.00;100274.00;5051648;28;20024;-48
2024/04/03 04:37:06;;;;;;;0.30;0.30;;;;;;;8.48;100.00;100276.56;5051740;28;20028;-47
2024/04/03 04:39:32;;;;;;;0.20;0.20;;;;;;;8.45;100.00;100276.44;5052208;28;20104;-47
2024/04/03 04:41:58;;;;;;;0.22;0.22;;;;;;;8.47;100.00;100272.25;5051771;28;20060;-51
2024/04/03 04:44:23;;;;;;;0.30;0.30;;;;;;;8.47;100.00;100269.69;5052154;28;20025;-47
2024/04/03 04:46:53;;;;;;;0.28;0.28;;;;;;;8.47;100.00;100274.81;5052463;28;20029;-46
2024/04/03 04:49:20;;;;;;;0.30;0.30;;;;;;;8.47;100.00;100264.56;5051323;28;20068;-46
2024/04/03 04:51:45;;;;;;;0.20;0.20;;;;;;;8.48;100.00;100266.31;5052410;28;20033;-47
2024/04/03 04:54:11;;;;;;;0.30;0.30;;;;;;;8.47;100.00;100272.25;5052303;28;20127;-47
2024/04/03 04:56:37;;;;;;;0.30;0.30;;;;;;;8.48;100.00;100261.16;5051108;28;20025;-48
2024/04/03 04:59:03;;;;;;;0.20;0.20;;;;;;;8.47;100.00;100264.56;5052223;28;20029;-47
2024/04/03 05:01:28;;;;;;;0.30;0.30;;;;;;;8.49;100.00;100268.00;5051673;28;20025;-47
2024/04/03 05:03:53;;;;;;;0.20;0.20;;;;;;;8.51;100.00;100266.38;5051385;28;20029;-48
2024/04/03 05:06:19;;;;;;;0.25;0.25;;;;;;;8.50;100.00;100259.50;5052347;28;20021;-48
2024/04/03 05:08:45;;;;;;;0.20;0.20;;;;;;;8.50;100.00;100263.78;5051719;28;20025;-47
2024/04/03 05:11:11;;;;;;;0.30;0.30;;;;;;;8.50;100.00;100264.63;5051055;28;20465;-47
2024/04/03 05:13:36;;;;;;;0.30;0.30;;;;;;;8.49;100.00;100257.75;5051853;28;20103;-47
2024/04/03 05:16:11;;;;;;;0.30;0.30;;;;;;;8.51;100.00;100260.38;5051919;28;20033;-47
2024/04/03 05:18:37;;;;;;;0.30;0.30;;;;;;;8.51;100.00;100257.81;5050874;28;20479;-50
2024/04/03 05:21:02;;;;;;;0.20;0.20;;;;;;;8.51;100.00;100261.22;5052074;28;20033;-50
2024/04/03 05:23:31;;;;;;;0.30;0.30;;;;;;;8.51;100.00;100250.97;5053884;28;20049;-48
2024/04/03 05:25:56;;;;;;;0.30;0.30;;;;;;;8.53;100.00;100248.44;5055360;28;20087;-46
2024/04/03 05:28:22;;;;;;;0.30;0.30;;;;;;;8.52;100.00;100244.13;5055672;28;20443;-47
2024/04/03 05:30:47;;;;;;;0.20;0.20;;;;;;;8.53;100.00;100241.63;5055953;28;20488;-46
2024/04/03 05:33:12;;;;;;;0.30;0.30;;;;;;;8.52;100.00;100236.41;5055275;28;20029;-47
2024/04/03 05:35:38;;;;;;;0.30;0.30;;;;;;;8.53;100.00;100244.19;5055840;28;20385;-50
2024/04/03 05:38:03;;;;;;;0.25;0.25;;;;;;;8.53;100.00;100244.19;5055262;28;20135;-47
2024/04/03 05:40:28;;;;;;;0.30;0.30;;;;;;;8.52;100.00;100237.31;5055949;28;20025;-47
2024/04/03 05:42:55;;;;;;;0.30;0.30;;;;;;;8.53;100.00;100230.44;5055940;28;20025;-50
2024/04/03 05:45:21;;;;;;;0.30;0.30;;;;;;;8.53;100.00;100227.88;5054668;28;20036;-47
2024/04/03 05:47:46;;;;;;;0.30;0.30;;;;;;;8.53;100.00;100233.03;5055933;28;20025;-46
2024/04/03 05:50:11;;;;;;;0.30;0.30;;;;;;;8.54;100.00;100233.06;5055314;28;20051;-47
2024/04/03 05:52:36;;;;;;;0.30;0.30;;;;;;;8.55;100.00;100234.81;5054705;28;20029;-49
2024/04/03 05:55:02;;;;;;;0.30;0.30;;;;;;;8.54;100.00;100227.91;5055528;28;20447;-47
2024/04/03 05:57:28;;;;;;;0.28;0.28;;;;;;;8.55;100.00;100221.09;5055249;28;20036;-47
2024/04/03 05:59:53;;;;;;;0.30;0.30;;;;;;;8.56;100.00;100222.84;5054596;28;20021;-47
2024/04/03 06:02:19;;;;;;;0.30;0.30;;;;;;;8.57;100.00;100225.47;5055548;28;20033;-50
2024/04/03 06:04:44;;;;;;;0.30;0.30;;;;;;;8.58;100.00;100216.03;5055351;28;20036;-47
2024/04/03 06:07:09;;;;;;;0.30;0.30;;;;;;;8.60;100.00;100221.22;5054533;28;20460;-47
2024/04/03 06:09:35;;;;;;;0.20;0.20;;;;;;;8.61;100.00;100217.81;5054991;28;20407;-47
2024/04/03 06:12:00;;;;;;;0.30;0.30;;;;;;;8.63;100.00;100223.88;5055101;28;20082;-50
2024/04/03 06:14:25;;;;;;;0.20;0.20;;;;;;;8.64;100.00;100208.50;5054056;28;20033;-50
2024/04/03 06:16:51;;;;;;;0.30;0.30;;;;;;;8.67;100.00;100215.44;5055317;28;20021;-51
2024/04/03 06:19:16;;;;;;;0.20;0.20;;;;;;;8.68;100.00;100206.91;5054874;28;20025;-49
2024/04/03 06:21:42;;;;;;;0.30;0.30;;;;;;;8.71;100.00;100209.53;5053978;28;20465;-50
2024/04/03 06:24:08;;;;;;;0.25;0.25;;;;;;;8.72;100.00;100213.84;5054876;28;20068;-50
2024/04/03 06:26:33;;;;;;;0.30;0.30;;;;;;;8.71;100.00;100214.69;5054550;28;20123;-50
2024/04/03 06:29:03;;;;;;;0.30;0.30;;;;;;;8.69;100.00;100212.06;5054041;28;20028;-47
2024/04/03 06:31:29;;;;;;;0.30;0.30;;;;;;;8.71;100.00;100213.00;5054572;28;20087;-46
2024/04/03 06:33:56;;;;;;;0.30;0.30;;;;;;;8.71;100.00;100209.53;5054561;28;20020;-50
2024/04/03 06:36:23;;;;;;;0.30;0.30;;;;;;;8.71;100.00;100206.97;5053157;28;20392;-50
2024/04/03 06:38:48;;;;;;;0.30;0.30;;;;;;;8.68;100.00;100207.75;5054857;28;20021;-50
2024/04/03 06:41:13;;;;;;;0.20;0.20;;;;;;;8.70;100.00;100200.09;5054550;28;20427;-50
2024/04/03 06:43:39;;;;;;;0.22;0.22;;;;;;;8.73;100.00;100200.19;5053475;28;20043;-49
2024/04/03 06:46:04;;;;;;;0.22;0.22;;;;;;;8.76;100.00;100200.25;5054061;28;20032;-50
2024/04/03 06:48:30;;;;;;;0.30;0.30;;;;;;;8.78;100.00;100203.75;5053678;28;20025;-48
2024/04/03 06:50:56;;;;;;;0.30;0.30;;;;;;;8.77;100.00;100196.88;5053953;28;20053;-47
2024/04/03 06:53:21;;;;;;;0.30;0.30;;;;;;;8.78;100.00;100201.19;5053965;28;20435;-48
2024/04/03 06:56:02;;;;;;;0.30;0.30;;;;;;;8.78;100.00;100198.59;5053693;28;20024;-47
2024/04/03 06:58:48;;;;;;;0.20;0.20;;;;;;;8.78;100.00;100198.59;5053893;28;20367;-51
2024/04/03 07:01:15;;;;;;;0.20;0.20;;;;;;;8.72;100.00;100198.44;5053733;28;20037;-51
2024/04/03 07:03:40;;;;;;;0.28;0.28;;;;;;;8.74;100.00;100189.09;5053318;28;20033;-47
2024/04/03 07:06:06;;;;;;;0.20;0.20;;;;;;;8.72;100.00;100188.16;5053866;28;20093;-47
2024/04/03 07:08:32;;;;;;;0.30;0.30;;;;;;;8.72;100.00;100193.31;5053647;28;20032;-46
2024/04/03 07:10:58;;;;;;;0.30;0.30;;;;;;;8.70;100.00;100180.41;5053210;28;20472;-49
2024/04/03 07:13:24;;;;;;;0.30;0.30;;;;;;;8.71;100.00;100182.16;5053847;28;20066;-49
2024/04/03 07:15:50;;;;;;;0.30;0.30;;;;;;;8.73;100.00;100184.78;5054185;28;20025;-50
2024/04/03 07:18:17;;;;;;;0.30;0.30;;;;;;;8.73;100.00;100177.06;5053017;28;20032;-50
2024/04/03 07:20:42;;;;;;;0.30;0.30;;;;;;;8.76;100.00;100179.69;5053326;28;20024;-51
2024/04/03 07:23:08;;;;;;;0.30;0.30;;;;;;;8.76;100.00;100183.97;5053370;28;20025;-50
2024/04/03 07:25:34;;;;;;;0.30;0.30;;;;;;;8.76;100.00;100184.84;5052597;28;20060;-50
2024/04/03 07:28:10;;;;;;;0.22;0.22;;;;;;;8.77;100.00;100176.31;5053557;28;20413;-49
2024/04/03 07:30:35;;;;;;;0.30;0.30;;;;;;;8.83;100.00;100176.47;5052834;28;20033;-49
2024/04/03 07:33:00;;;;;;;0.30;0.30;;;;;;;8.87;100.00;100180.84;5053669;28;20074;-49
2024/04/03 07:35:26;;;;;;;0.30;0.30;;;;;;;8.91;100.00;100179.25;5053269;28;20116;-49
2024/04/03 07:37:51;;;;;;;0.30;0.30;;;;;;;9.00;100.00;100169.19;5052681;28;20021;-48
2024/04/03 07:40:16;;;;;;;0.30;0.30;;;;;;;9.03;100.00;100178.66;5053723;28;20078;-48
2024/04/03 07:42:43;;;;;;;0.30;0.30;;;;;;;9.07;100.00;100172.78;5052745;28;20037;-51
2024/04/03 07:45:09;;;;;;;0.20;0.20;;;;;;;9.13;100.00;100174.59;5052645;28;20029;-49
2024/04/03 07:47:35;;;;;;;0.25;0.25;;;;;;;9.19;100.00;100174.75;5052810;28;20059;-50
2024/04/03 07:50:03;;;;;;;0.30;0.30;;;;;;;9.21;100.00;100176.53;5052856;28;20139;-51
2024/04/03 07:52:29;;;;;;;0.30;0.30;;;;;;;9.27;100.00;100172.38;5052157;28;20464;-49
2024/04/03 07:54:54;;;;;;;0.20;0.20;;;;;;;9.29;100.00;100173.31;5053220;28;20136;-50
2024/04/03 07:57:19;;;;;;;0.30;0.30;;;;;;;9.33;100.00;100175.97;5052859;28;20032;-46
2024/04/03 07:59:48;;;;;;;0.30;0.30;;;;;;;9.33;100.00;100182.81;5052566;28;20027;-50
2024/04/03 08:02:13;;;;;;;0.22;0.22;;;;;;;9.27;100.00;100183.56;5052990;28;20044;-50
2024/04/03 08:04:39;;;;;;;0.20;0.20;;;;;;;9.25;100.00;100176.63;5052727;28;20029;-51
2024/04/03 08:07:04;;;;;;;0.30;0.30;;;;;;;9.23;100.00;100187.75;5052014;28;20101;-51
2024/04/03 08:09:33;;;;;;;0.30;0.30;;;;;;;9.21;100.00;100189.41;5052607;28;20025;-51
2024/04/03 08:12:00;;;;;;;0.30;0.30;;;;;;;9.18;100.00;100181.63;5052853;28;20043;-51
2024/04/03 08:14:25;;;;;;;0.30;0.30;;;;;;;9.19;100.00;100182.47;5051900;28;20024;-51
2024/04/03 08:16:51;;;;;;;0.30;0.30;;;;;;;9.21;100.00;100181.69;5052782;28;20029;-51
2024/04/03 08:19:16;;;;;;;0.20;0.20;;;;;;;9.27;100.00;100177.53;5052717;28;20511;-52
2024/04/03 08:21:44;;;;;;;0.30;0.30;;;;;;;9.29;100.00;100181.00;5051597;28;20053;-49
2024/04/03 08:24:10;;;;;;;;;;;;;;;9.44;100.00;100183.94;5053215;28;20025;-50
2024/04/03 08:26:35;;;;;;;0.32;0.32;;;;;;;9.36;100.00;100188.03;5052464;28;19913;-51
2024/04/03 08:29:00;;;;;;;0.30;0.30;;;;;;;9.38;100.00;100186.38;5051706;28;20027;-51
2024/04/03 08:31:25;;;;;;;0.22;0.22;;;;;;;9.37;100.00;100188.09;5051964;28;20543;-49
2024/04/03 08:33:51;;;;;;;0.30;0.30;;;;;;;9.35;100.00;100186.31;5052795;28;20025;-49
2024/04/03 08:36:16;;;;;;;0.30;0.30;;;;;;;9.35;100.00;100187.16;5052036;28;20493;-52
2024/04/03 08:38:41;;;;;;;0.20;0.20;;;;;;;9.35;100.00;100196.59;5052525;28;20031;-51
2024/04/03 08:41:06;;;;;;;0.30;0.30;;;;;;;9.36;100.00;100182.88;5051710;28;20384;-52
2024/04/03 08:43:34;;;;;;;0.22;0.22;;;;;;;9.35;100.00;100187.16;5052317;28;20021;-51
2024/04/03 08:45:59;;;;;;;0.30;0.30;;;;;;;9.42;100.00;100187.31;5052586;28;20021;-51
2024/04/03 08:48:25;;;;;;;0.30;0.30;;;;;;;9.47;100.00;100186.59;5051352;28;20021;-52
2024/04/03 08:50:54;;;;;;;0.30;0.30;;;;;;;9.52;100.00;100182.41;5052192;28;20057;-51
2024/04/03 08:53:21;;;;;;;0.25;0.25;;;;;;;9.58;100.00;100185.97;5052181;28;20025;-47
2024/04/03 08:55:48;;;;;;;0.30;0.30;;;;;;;9.65;100.00;100185.28;5051792;28;20035;-51
2024/04/03 08:58:15;;;;;;;0.30;0.30;;;;;;;9.71;100.00;100188.00;5051834;28;20063;-51
2024/04/03 09:00:41;;;;;;;0.30;0.30;;;;;;;9.80;100.00;100183.06;5052035;28;20021;-50
2024/04/03 09:03:06;;;;;;;0.20;0.20;;;;;;;9.93;100.00;100191.03;5051336;28;20091;-51
2024/04/03 09:05:32;;;;;;;0.30;0.30;;;;;;;9.93;100.00;100191.03;5051811;28;20025;-52
2024/04/03 09:08:00;;;;;;;0.30;0.30;;;;;;;9.92;100.00;100192.75;5052316;28;20053;-51
2024/04/03 09:10:38;;;;;;;0.20;0.20;;;;;;;9.92;100.00;100192.75;5050926;28;20485;-51
2024/04/03 09:13:05;;;;;;;0.20;0.20;;;;;;;10.06;100.00;100193.03;5052141;28;20052;-49
2024/04/03 09:15:31;;;;;;;0.30;0.30;;;;;;;10.12;100.00;100185.44;5051869;28;20032;-51
2024/04/03 09:18:03;;;;;;;0.20;0.20;;;;;;;10.20;100.00;100189.03;5051202;28;20029;-51
2024/04/03 09:20:29;;;;;;;0.20;0.20;;;;;;;10.33;100.00;100177.28;5051760;28;20025;-52
2024/04/03 09:22:56;;;;;;;0.30;0.30;;;;;;;10.45;100.00;100179.25;5051282;28;20047;-51
2024/04/03 09:25:24;;;;;;;0.27;0.27;;;;;;;10.62;100.00;100183.88;5051032;28;20037;-51
2024/04/03 09:27:49;;;;;;;0.20;0.20;;;;;;;10.68;100.00;100183.97;5051984;28;20315;-51
2024/04/03 09:30:15;;;;;;;0.20;0.20;;;;;;;10.70;100.00;100183.16;5050621;28;20048;-51
2024/04/03 09:32:40;;;;;;;0.20;0.20;;;;;;;10.87;100.00;100188.63;5051209;28;20024;-50
2024/04/03 09:35:07;;;;;;;0.25;0.25;;;;;;;11.01;100.00;100182.81;5051782;28;20025;-49
2024/04/03 09:37:35;;;;;;;0.30;0.30;;;;;;;11.10;100.00;100176.97;5051027;28;20025;-50
2024/04/03 09:40:03;;;;;;;0.20;0.20;;;;;;;11.25;100.00;100182.38;5051679;28;20104;-51
2024/04/03 09:42:30;;;;;;;0.20;0.20;;;;;;;11.17;100.00;100187.41;5051624;28;20065;-52
2024/04/03 09:45:01;;;;;;;0.20;0.20;;;;;;;11.12;100.00;100180.44;5051008;28;20021;-52
2024/04/03 09:47:29;;;;;;;0.20;0.20;;;;;;;11.15;100.00;100181.34;5051474;28;20029;-51
2024/04/03 09:49:59;;;;;;;0.20;0.20;;;;;;;11.22;100.00;100184.03;5051623;28;20120;-51
2024/04/03 09:52:25;;;;;;;0.20;0.20;;;;;;;11.24;100.00;100179.78;5050467;28;20032;-50
2024/04/03 09:54:52;;;;;;;0.20;0.20;;;;;;;11.19;100.00;100171.94;5051592;28;20033;-50
2024/04/03 09:57:17;;;;;;;0.20;0.20;;;;;;;11.19;100.00;100166.78;5050917;28;20518;-51
2024/04/03 09:59:43;;;;;;;0.20;0.20;;;;;;;11.24;100.00;100174.63;5050735;28;20061;-49
2024/04/03 10:02:12;;;;;;;0.20;0.20;;;;;;;11.27;100.00;100167.81;5050959;28;20033;-52
2024/04/03 10:04:39;;;;;;;0.20;0.20;;;;;;;11.25;100.00;100173.78;5050122;28;20032;-51
2024/04/03 10:07:30;;;;;;;0.20;0.20;;;;;;;11.33;100.00;100170.44;5049454;28;20023;-51
2024/04/03 10:09:58;;;;;;;0.20;0.20;;;;;;;11.29;100.00;100172.97;5051468;28;20108;-51
2024/04/03 10:12:24;;;;;;;0.10;0.10;;;;;;;11.30;100.00;100170.41;5053426;28;21002;-51
2024/04/03 10:14:57;;;;;;;0.20;0.20;;;;;;;11.38;100.00;100167.97;5054517;28;20084;-50
2024/04/03 10:17:22;;;;;;;0.20;0.20;;;;;;;11.33;100.00;100172.19;5054132;28;20029;-51
2024/04/03 10:19:48;;;;;;;0.20;0.20;;;;;;;11.36;100.00;100169.63;5054523;28;20059;-51
2024/04/03 10:22:17;;;;;;;0.20;0.20;;;;;;;11.38;100.00;100175.69;5054886;28;20409;-51
2024/04/03 10:24:43;;;;;;;0.20;0.20;;;;;;;11.37;100.00;100166.22;5054751;28;20461;-56
2024/04/03 10:27:09;;;;;;;0.20;0.20;;;;;;;11.39;100.00;100171.38;5054273;28;20025;-50
2024/04/03 10:29:35;;;;;;;0.20;0.20;;;;;;;11.42;100.00;100154.25;5054611;28;20051;-51
2024/04/03 10:32:00;;;;;;;0.20;0.20;;;;;;;11.41;100.00;100165.41;5054565;28;20481;-50
2024/04/03 10:34:26;;;;;;;0.20;0.20;;;;;;;11.46;100.00;100161.19;5053640;28;20104;-50
2024/04/03 10:36:51;;;;;;;0.20;0.20;;;;;;;11.55;100.00;100157.03;5054721;28;20476;-47
2024/04/03 10:39:17;;;;;;;0.20;0.20;;;;;;;11.53;100.00;100162.16;5054914;28;20078;-47
2024/04/03 10:41:42;;;;;;;0.20;0.20;;;;;;;11.59;100.00;100156.22;5053828;28;20049;-47
2024/04/03 10:44:11;;;;;;;0.20;0.20;;;;;;;11.61;100.00;100164.88;5054431;28;20107;-51
2024/04/03 10:46:36;;;;;;;0.20;0.20;;;;;;;11.71;100.00;100161.56;5054297;28;20102;-48
2024/04/03 10:49:02;;;;;;;0.20;0.20;;;;;;;11.71;100.00;100156.41;5053689;28;20131;-48
2024/04/03 10:51:28;;;;;;;0.20;0.20;;;;;;;11.80;100.00;100165.97;5053985;28;20055;-47
2024/04/03 10:53:55;;;;;;;0.20;0.20;;;;;;;11.89;100.00;100166.13;5054354;28;20041;-47
2024/04/03 10:56:24;;;;;;;0.20;0.20;;;;;;;11.94;100.00;100168.72;5053570;28;20108;-48
2024/04/03 10:58:49;;;;;;;0.20;0.20;;;;;;;11.96;100.00;100177.41;5054282;28;20426;-47
2024/04/03 11:01:15;;;;;;;0.20;0.20;;;;;;;12.04;100.00;100175.78;5054244;28;20482;-52
2024/04/03 11:03:43;;;;;;;0.20;0.20;;;;;;;12.08;100.00;100177.56;5052710;28;20103;-48
2024/04/03 11:06:09;;;;;;;0.20;0.20;;;;;;;12.01;100.00;100174.03;5073142;28;20039;-51
2024/04/03 11:08:34;;;;;;;0.20;0.20;;;;;;;12.00;100.00;100176.59;5073625;28;20364;-51
2024/04/03 11:11:04;;;;;;;0.20;0.20;;;;;;;11.99;100.00;100167.09;5073285;28;20468;-52
2024/04/03 11:13:29;;;;;;;0.20;0.20;;;;;;;11.85;100.00;100170.34;5073680;28;20031;-48
2024/04/03 11:15:55;;;;;;;0.20;0.20;;;;;;;11.76;100.00;100170.25;5072260;28;20020;-52
2024/04/03 11:18:20;;;;;;;0.20;0.20;;;;;;;11.64;100.00;100170.06;5072974;28;20422;-50
2024/04/03 11:20:48;;;;;;;0.20;0.20;;;;;;;11.55;100.00;100167.34;5072380;28;20021;-51
2024/04/03 11:23:14;;;;;;;0.22;0.22;;;;;;;11.58;100.00;100167.38;5069505;28;20368;-51